createdAt,value
2018-04-18T00:01:43.382Z,14.30
2018-04-18T00:04:11.686Z,14.30
2018-04-18T00:06:39.191Z,14.30
2018-04-18T00:09:06.715Z,14.30
2018-04-18T00:11:34.243Z,14.30
2018-04-18T00:14:01.755Z,14.20
2018-04-18T00:16:29.282Z,14.20
2018-04-18T00:18:56.839Z,14.20
2018-04-18T00:21:24.356Z,14.20
2018-04-18T00:23:51.891Z,14.10
2018-04-18T00:26:19.418Z,14.10
2018-04-18T00:28:46.984Z,14.10
2018-04-18T00:31:14.534Z,14.00
2018-04-18T00:33:42.071Z,14.00
2018-04-18T00:36:10.739Z,13.90
2018-04-18T00:38:39.681Z,13.90
2018-04-18T00:41:08.358Z,13.90
2018-04-18T00:43:37.167Z,13.90
2018-04-18T00:46:05.977Z,13.80
2018-04-18T00:48:34.225Z,13.80
2018-04-18T00:51:02.145Z,13.80
2018-04-18T00:53:30.453Z,13.60
2018-04-18T00:55:57.955Z,13.60
2018-04-18T00:58:25.511Z,13.70
2018-04-18T01:00:53.064Z,13.60
2018-04-18T01:03:20.574Z,13.50
2018-04-18T01:05:49.511Z,13.40
2018-04-18T01:08:17.075Z,13.40
2018-04-18T01:10:45.519Z,13.30
2018-04-18T01:13:13.302Z,13.30
2018-04-18T01:15:40.860Z,13.30
2018-04-18T01:18:08.366Z,13.30
2018-04-18T01:20:36.680Z,13.30
2018-04-18T01:23:04.289Z,13.30
2018-04-18T01:25:31.913Z,13.30
2018-04-18T01:27:59.478Z,13.30
2018-04-18T01:30:27.008Z,13.20
2018-04-18T01:32:54.585Z,13.10
2018-04-18T01:35:22.247Z,13.10
2018-04-18T01:37:49.789Z,13.00
2018-04-18T01:40:17.353Z,13.00
2018-04-18T01:42:44.856Z,13.10
2018-04-18T01:45:12.478Z,13.00
2018-04-18T01:47:40.022Z,13.10
2018-04-18T01:50:07.526Z,13.10
2018-04-18T01:52:35.384Z,13.00
2018-04-18T01:55:02.931Z,12.90
2018-04-18T01:57:30.460Z,12.90
2018-04-18T01:59:58.727Z,12.90
2018-04-18T02:02:27.014Z,12.90
2018-04-18T02:04:55.341Z,12.80
2018-04-18T02:07:22.855Z,12.80
2018-04-18T02:09:51.163Z,12.80
2018-04-18T02:12:18.679Z,12.70
2018-04-18T02:14:46.971Z,12.60
2018-04-18T02:17:14.763Z,12.60
2018-04-18T02:19:43.169Z,12.60
2018-04-18T02:22:10.694Z,12.50
2018-04-18T02:24:38.365Z,12.50
2018-04-18T02:27:05.905Z,12.60
2018-04-18T02:29:33.436Z,12.60
2018-04-18T02:32:00.978Z,12.50
2018-04-18T02:34:29.311Z,12.50
2018-04-18T02:36:56.845Z,12.50
2018-04-18T02:39:24.484Z,12.50
2018-04-18T02:41:52.814Z,12.50
2018-04-18T02:44:20.494Z,12.50
2018-04-18T02:46:48.159Z,12.50
2018-04-18T02:49:15.795Z,12.40
2018-04-18T02:51:43.310Z,12.50
2018-04-18T02:54:11.606Z,12.40
2018-04-18T02:56:39.144Z,12.40
2018-04-18T02:59:07.458Z,12.40
2018-04-18T03:01:34.967Z,12.40
2018-04-18T03:04:03.289Z,12.40
2018-04-18T03:06:30.863Z,12.40
2018-04-18T03:08:59.918Z,12.30
2018-04-18T03:11:28.306Z,12.30
2018-04-18T03:13:55.840Z,12.30
2018-04-18T03:16:24.397Z,12.30
2018-04-18T03:18:52.349Z,12.20
2018-04-18T03:21:19.856Z,12.30
2018-04-18T03:23:48.402Z,12.10
2018-04-18T03:26:15.991Z,12.10
2018-04-18T03:28:44.651Z,12.00
2018-04-18T03:31:12.493Z,12.00
2018-04-18T03:33:40.096Z,11.90
2018-04-18T03:36:08.449Z,11.90
2018-04-18T03:38:36.937Z,11.90
2018-04-18T03:41:05.516Z,12.00
2018-04-18T03:43:33.071Z,11.90
2018-04-18T03:46:00.637Z,11.90
2018-04-18T03:48:28.198Z,11.80
2018-04-18T03:50:55.792Z,11.80
2018-04-18T03:53:24.129Z,11.80
2018-04-18T03:55:51.698Z,11.80
2018-04-18T03:58:19.268Z,11.70
2018-04-18T04:00:46.833Z,11.80
2018-04-18T04:03:16.110Z,11.80
2018-04-18T04:05:44.074Z,11.80
2018-04-18T04:08:11.635Z,11.60
2018-04-18T04:10:39.212Z,11.60
2018-04-18T04:13:07.554Z,11.60
2018-04-18T04:15:35.143Z,11.60
2018-04-18T04:18:14.675Z,11.60
2018-04-18T04:20:54.309Z,11.60
2018-04-18T04:23:33.913Z,11.50
2018-04-18T04:26:02.262Z,11.50
2018-04-18T04:28:30.593Z,11.40
2018-04-18T04:30:58.153Z,11.40
2018-04-18T04:33:25.852Z,11.30
2018-04-18T04:35:53.417Z,11.30
2018-04-18T04:38:21.019Z,11.20
2018-04-18T04:40:48.625Z,11.20
2018-04-18T04:43:17.494Z,11.20
2018-04-18T04:45:45.076Z,11.20
2018-04-18T04:48:12.673Z,11.20
2018-04-18T04:50:40.264Z,11.20
2018-04-18T04:53:07.821Z,11.20
2018-04-18T04:55:35.379Z,11.20
2018-04-18T04:58:02.970Z,11.20
2018-04-18T05:00:32.054Z,11.30
2018-04-18T05:02:59.647Z,11.20
2018-04-18T05:05:27.233Z,11.20
2018-04-18T05:07:54.832Z,11.20
2018-04-18T05:10:22.723Z,11.30
2018-04-18T05:12:50.555Z,11.30
2018-04-18T05:15:19.576Z,11.40
2018-04-18T05:17:47.850Z,11.40
2018-04-18T05:20:15.495Z,11.50
2018-04-18T05:22:43.148Z,11.50
2018-04-18T05:25:11.143Z,11.50
2018-04-18T05:27:38.800Z,11.60
2018-04-18T05:30:06.412Z,11.70
2018-04-18T05:32:35.523Z,11.80
2018-04-18T05:35:03.143Z,11.80
2018-04-18T05:37:30.754Z,11.90
2018-04-18T05:39:58.343Z,11.90
2018-04-18T05:42:25.969Z,12.10
2018-04-18T05:44:53.641Z,12.20
2018-04-18T05:47:21.221Z,12.40
2018-04-18T05:49:48.816Z,12.60
2018-04-18T05:52:17.468Z,12.80
2018-04-18T05:54:45.068Z,12.80
2018-04-18T05:57:13.491Z,13.10
2018-04-18T05:59:41.119Z,13.10
2018-04-18T06:02:08.897Z,13.20
2018-04-18T06:04:36.576Z,13.20
2018-04-18T06:07:04.140Z,13.20
2018-04-18T06:09:31.700Z,13.20
2018-04-18T06:11:59.332Z,13.20
2018-04-18T06:14:26.895Z,13.40
2018-04-18T06:16:54.704Z,13.50
2018-04-18T06:19:22.321Z,13.50
2018-04-18T06:21:50.005Z,13.70
2018-04-18T06:24:17.603Z,13.80
2018-04-18T06:26:46.648Z,14.00
2018-04-18T06:29:14.216Z,14.00
2018-04-18T06:31:41.782Z,14.00
2018-04-18T06:34:09.365Z,14.10
2018-04-18T06:36:37.425Z,14.20
2018-04-18T06:39:05.681Z,14.40
2018-04-18T06:41:33.279Z,14.40
2018-04-18T06:44:01.138Z,14.60
2018-04-18T06:46:29.457Z,14.50
2018-04-18T06:48:57.884Z,14.60
2018-04-18T06:51:25.769Z,14.80
2018-04-18T06:53:54.147Z,14.90
2018-04-18T06:56:21.739Z,14.80
2018-04-18T06:58:50.566Z,15.00
2018-04-18T07:01:18.196Z,15.00
2018-04-18T07:03:45.965Z,15.10
2018-04-18T07:06:14.166Z,15.10
2018-04-18T07:08:41.917Z,15.20
2018-04-18T07:11:09.647Z,15.40
2018-04-18T07:13:37.332Z,15.60
2018-04-18T07:16:05.669Z,15.80
2018-04-18T07:18:33.652Z,15.80
2018-04-18T07:21:02.241Z,16.00
2018-04-18T07:23:30.586Z,16.10
2018-04-18T07:25:58.190Z,16.10
2018-04-18T07:28:26.523Z,16.40
2018-04-18T07:30:54.127Z,16.30
2018-04-18T07:33:22.596Z,16.60
2018-04-18T07:35:50.957Z,16.70
2018-04-18T07:38:18.560Z,16.70
2018-04-18T07:40:46.589Z,16.70
2018-04-18T07:43:14.171Z,16.80
2018-04-18T07:45:42.547Z,16.90
2018-04-18T07:48:11.012Z,17.00
2018-04-18T07:50:40.121Z,17.10
2018-04-18T07:53:08.598Z,17.10
2018-04-18T07:55:37.248Z,17.20
2018-04-18T07:58:04.856Z,17.20
2018-04-18T08:00:33.246Z,17.50
2018-04-18T08:03:00.878Z,17.50
2018-04-18T08:05:29.290Z,17.80
2018-04-18T08:07:56.905Z,17.80
2018-04-18T08:10:24.488Z,17.90
2018-04-18T08:12:53.428Z,18.20
2018-04-18T08:15:21.085Z,18.20
2018-04-18T08:17:49.390Z,18.60
2018-04-18T08:20:17.033Z,18.60
2018-04-18T08:22:44.584Z,18.60
2018-04-18T08:25:12.165Z,18.70
2018-04-18T08:30:32.813Z,19.20
2018-04-18T08:33:01.174Z,19.30
2018-04-18T08:35:29.125Z,19.30
2018-04-18T08:37:56.721Z,19.50
2018-04-18T08:40:25.081Z,19.70
2018-04-18T08:42:52.652Z,19.80
2018-04-18T08:45:21.237Z,20.00
2018-04-18T08:47:49.578Z,20.10
2018-04-18T08:50:17.139Z,20.10
2018-04-18T08:52:44.720Z,20.40
2018-04-18T08:55:12.393Z,20.40
2018-04-18T08:57:40.005Z,20.50
2018-04-18T09:00:08.624Z,20.50
2018-04-18T09:02:36.241Z,20.80
2018-04-18T09:05:03.857Z,21.00
2018-04-18T09:07:32.330Z,21.00
2018-04-18T09:09:59.937Z,21.10
2018-04-18T09:12:27.487Z,21.20
2018-04-18T09:14:55.093Z,21.20
2018-04-18T09:17:23.813Z,21.30
2018-04-18T09:19:52.471Z,21.50
2018-04-18T09:22:20.058Z,21.50
2018-04-18T09:24:47.606Z,21.60
2018-04-18T09:27:16.500Z,21.80
2018-04-18T09:29:44.346Z,21.90
2018-04-18T09:32:11.922Z,22.00
2018-04-18T09:34:39.901Z,22.00
2018-04-18T09:37:07.531Z,22.00
2018-04-18T09:39:35.118Z,22.30
2018-04-18T09:42:03.477Z,22.60
2018-04-18T09:44:31.039Z,22.60
2018-04-18T09:46:58.615Z,22.70
2018-04-18T09:49:26.182Z,22.70
2018-04-18T09:51:53.782Z,22.90
2018-04-18T09:54:21.465Z,23.10
2018-04-18T09:56:50.161Z,23.20
2018-04-18T09:59:17.783Z,23.20
2018-04-18T10:01:45.379Z,23.20
2018-04-18T10:04:14.983Z,23.50
2018-04-18T10:06:43.267Z,23.50
2018-04-18T10:09:10.861Z,23.60
2018-04-18T10:11:39.225Z,23.90
2018-04-18T10:14:08.713Z,24.00
2018-04-18T10:16:36.269Z,24.00
2018-04-18T10:19:04.425Z,24.30
2018-04-18T10:21:32.017Z,24.30
2018-04-18T10:23:59.874Z,24.40
2018-04-18T10:26:28.285Z,24.40
2018-04-18T10:28:56.687Z,24.80
2018-04-18T10:31:24.323Z,24.80
2018-04-18T10:33:52.152Z,24.90
2018-04-18T10:36:19.771Z,25.00
2018-04-18T10:38:47.577Z,25.00
2018-04-18T10:41:15.223Z,25.00
2018-04-18T10:43:42.838Z,25.00
2018-04-18T10:46:11.194Z,25.10
2018-04-18T10:48:39.253Z,25.10
2018-04-18T10:51:06.820Z,25.20
2018-04-18T10:53:34.388Z,25.20
2018-04-18T10:56:02.788Z,25.40
2018-04-18T10:58:31.121Z,25.40
2018-04-18T11:00:58.720Z,25.30
2018-04-18T11:03:26.272Z,25.40
2018-04-18T11:05:53.875Z,25.40
2018-04-18T11:08:21.444Z,25.50
2018-04-18T11:10:49.020Z,25.60
2018-04-18T11:13:16.603Z,25.60
2018-04-18T11:15:44.211Z,25.60
2018-04-18T11:18:11.829Z,25.60
2018-04-18T11:20:39.621Z,25.50
2018-04-18T11:23:07.942Z,25.60
2018-04-18T11:25:35.520Z,25.60
2018-04-18T11:28:03.229Z,25.60
2018-04-18T11:30:30.819Z,25.70
2018-04-18T11:32:58.404Z,25.80
2018-04-18T11:35:25.989Z,25.90
2018-04-18T11:37:54.344Z,26.00
2018-04-18T11:40:21.970Z,26.00
2018-04-18T11:42:49.539Z,25.90
2018-04-18T11:45:17.177Z,26.00
2018-04-18T11:47:44.866Z,26.10
2018-04-18T11:50:12.524Z,26.20
2018-04-18T11:52:40.074Z,26.30
2018-04-18T11:55:07.693Z,26.20
2018-04-18T11:57:36.116Z,26.40
2018-04-18T12:00:03.653Z,26.40
2018-04-18T12:02:31.363Z,26.40
2018-04-18T12:04:59.119Z,26.30
2018-04-18T12:07:26.853Z,26.30
2018-04-18T12:09:54.487Z,26.40
2018-04-18T12:12:23.633Z,26.60
2018-04-18T12:14:51.246Z,26.60
2018-04-18T12:17:19.573Z,26.80
2018-04-18T12:19:47.759Z,26.70
2018-04-18T12:22:15.406Z,26.80
2018-04-18T12:24:43.917Z,26.80
2018-04-18T12:27:11.661Z,26.90
2018-04-18T12:29:39.310Z,27.00
2018-04-18T12:32:06.885Z,27.00
2018-04-18T12:34:34.752Z,27.00
2018-04-18T12:37:02.313Z,27.00
2018-04-18T12:39:29.911Z,27.10
2018-04-18T12:41:58.251Z,27.20
2018-04-18T12:44:25.916Z,27.30
2018-04-18T12:46:54.288Z,27.30
2018-04-18T12:49:21.878Z,27.20
2018-04-18T12:51:49.608Z,27.20
2018-04-18T12:54:17.536Z,27.20
2018-04-18T12:56:45.943Z,27.20
2018-04-18T12:59:13.561Z,27.30
2018-04-18T13:01:42.231Z,27.50
2018-04-18T13:04:09.852Z,27.50
2018-04-18T13:06:37.421Z,27.60
2018-04-18T13:09:05.541Z,27.70
2018-04-18T13:11:33.882Z,27.90
2018-04-18T13:14:01.566Z,27.90
2018-04-18T13:16:29.411Z,28.00
2018-04-18T13:18:57.160Z,27.80
2018-04-18T13:21:25.634Z,28.00
2018-04-18T13:23:53.421Z,28.00
2018-04-18T13:26:21.081Z,28.20
2018-04-18T13:28:48.690Z,28.30
2018-04-18T13:31:16.241Z,28.40
2018-04-18T13:33:44.574Z,29.10
2018-04-18T13:36:12.252Z,29.00
2018-04-18T13:38:40.805Z,29.40
2018-04-18T13:41:08.904Z,29.60
2018-04-18T13:43:37.972Z,29.90
2018-04-18T13:46:05.737Z,29.90
2018-04-18T13:48:33.307Z,30.50
2018-04-18T13:51:00.905Z,30.80
2018-04-18T13:53:29.268Z,32.10
2018-04-18T13:55:57.638Z,32.80
2018-04-18T13:58:25.192Z,32.70
2018-04-18T14:00:52.785Z,33.20
2018-04-18T14:03:21.115Z,34.20
2018-04-18T14:05:48.705Z,34.10
2018-04-18T14:08:16.456Z,34.50
2018-04-18T14:10:44.014Z,34.70
2018-04-18T14:13:11.581Z,34.90
2018-04-18T14:15:39.143Z,35.00
2018-04-18T14:18:06.720Z,35.10
2018-04-18T14:20:35.290Z,35.10
2018-04-18T14:23:02.861Z,35.00
2018-04-18T14:25:31.300Z,35.50
2018-04-18T14:27:59.859Z,35.50
2018-04-18T14:30:28.153Z,35.50
2018-04-18T14:32:55.746Z,35.80
2018-04-18T14:35:24.813Z,35.80
2018-04-18T14:37:52.403Z,35.80
2018-04-18T14:40:20.776Z,35.60
2018-04-18T14:42:48.381Z,35.60
2018-04-18T14:45:16.011Z,35.70
2018-04-18T14:47:43.776Z,35.70
2018-04-18T14:50:12.163Z,35.60
2018-04-18T14:52:40.565Z,35.80
2018-04-18T14:55:08.161Z,35.90
2018-04-18T14:57:36.041Z,35.50
2018-04-18T15:00:03.668Z,35.20
2018-04-18T15:02:31.314Z,35.20
2018-04-18T15:04:58.900Z,35.50
2018-04-18T15:07:26.465Z,35.40
2018-04-18T15:09:54.015Z,35.30
2018-04-18T15:12:21.613Z,35.30
2018-04-18T15:14:49.961Z,35.30
2018-04-18T15:17:17.524Z,35.30
2018-04-18T15:19:45.287Z,35.40
2018-04-18T15:22:12.841Z,35.20
2018-04-18T15:24:40.798Z,35.30
2018-04-18T15:27:08.356Z,35.20
2018-04-18T15:29:35.918Z,35.20
2018-04-18T15:32:03.508Z,35.40
2018-04-18T15:34:31.948Z,35.30
2018-04-18T15:36:59.583Z,35.30
2018-04-18T15:39:27.943Z,35.50
2018-04-18T15:41:55.555Z,35.40
2018-04-18T15:44:23.143Z,35.30
2018-04-18T15:46:50.709Z,35.30
2018-04-18T15:49:18.456Z,35.00
2018-04-18T15:51:46.022Z,35.20
2018-04-18T15:54:13.614Z,35.00
2018-04-18T15:56:42.073Z,34.90
2018-04-18T15:59:09.791Z,34.80
2018-04-18T16:01:37.352Z,34.60
2018-04-18T16:04:04.921Z,35.20
2018-04-18T16:06:32.480Z,35.30
2018-04-18T16:09:00.118Z,34.80
2018-04-18T16:11:28.510Z,34.50
2018-04-18T16:13:56.118Z,34.50
2018-04-18T16:16:24.686Z,34.40
2018-04-18T16:18:52.278Z,34.40
2018-04-18T16:21:20.091Z,34.10
2018-04-18T16:23:47.674Z,34.10
2018-04-18T16:26:15.221Z,34.10
2018-04-18T16:28:42.787Z,33.70
2018-04-18T16:31:10.415Z,33.70
2018-04-18T16:33:38.062Z,33.90
2018-04-18T16:36:06.404Z,33.90
2018-04-18T16:38:33.977Z,33.90
2018-04-18T16:41:01.584Z,33.70
2018-04-18T16:43:29.174Z,33.80
2018-04-18T16:45:56.839Z,33.70
2018-04-18T16:48:24.396Z,33.40
2018-04-18T16:50:51.981Z,33.30
2018-04-18T16:53:19.832Z,33.30
2018-04-18T16:55:47.393Z,33.30
2018-04-18T16:58:14.979Z,32.90
2018-04-18T17:00:42.566Z,32.80
2018-04-18T17:03:10.147Z,32.70
2018-04-18T17:05:37.712Z,32.60
2018-04-18T17:08:05.422Z,32.50
2018-04-18T17:10:33.464Z,32.40
2018-04-18T17:13:01.177Z,32.20
2018-04-18T17:15:29.921Z,31.80
2018-04-18T17:17:57.518Z,31.70
2018-04-18T17:20:25.265Z,31.50
2018-04-18T17:22:52.877Z,31.30
2018-04-18T17:25:20.445Z,30.70
2018-04-18T17:27:48.036Z,29.90
2018-04-18T17:30:15.639Z,29.10
2018-04-18T17:32:43.203Z,28.40
2018-04-18T17:35:11.573Z,27.30
2018-04-18T17:37:39.208Z,27.30
2018-04-18T17:40:07.961Z,26.30
2018-04-18T17:42:36.932Z,26.30
2018-04-18T17:45:04.666Z,26.00
2018-04-18T17:47:32.262Z,25.80
2018-04-18T17:49:59.888Z,25.50
2018-04-18T17:52:28.618Z,25.10
2018-04-18T17:54:56.290Z,25.10
2018-04-18T17:57:23.846Z,24.80
2018-04-18T17:59:51.443Z,24.60
2018-04-18T18:02:19.760Z,24.30
2018-04-18T18:04:47.555Z,24.30
2018-04-18T18:07:15.147Z,24.20
2018-04-18T18:09:43.754Z,24.10
2018-04-18T18:12:11.427Z,24.00
2018-04-18T18:14:38.993Z,24.00
2018-04-18T18:17:07.549Z,23.80
2018-04-18T18:19:36.542Z,23.60
2018-04-18T18:22:04.151Z,23.60
2018-04-18T18:24:31.835Z,23.40
2018-04-18T18:26:59.406Z,23.30
2018-04-18T18:29:28.068Z,23.00
2018-04-18T18:31:55.695Z,22.90
2018-04-18T18:34:23.258Z,22.90
2018-04-18T18:36:51.139Z,22.80
2018-04-18T18:39:18.829Z,22.70
2018-04-18T18:41:47.183Z,22.50
2018-04-18T18:44:14.891Z,22.40
2018-04-18T18:46:43.361Z,22.30
2018-04-18T18:49:11.727Z,22.30
2018-04-18T18:51:39.455Z,22.30
2018-04-18T18:54:07.051Z,22.20
2018-04-18T18:56:35.005Z,22.10
2018-04-18T18:59:02.752Z,22.10
2018-04-18T19:01:30.353Z,22.00
2018-04-18T19:03:59.941Z,21.90
2018-04-18T19:06:27.666Z,21.80
2018-04-18T19:08:55.269Z,21.80
2018-04-18T19:11:22.838Z,21.70
2018-04-18T19:13:50.422Z,21.70
2018-04-18T19:16:18.959Z,21.50
2018-04-18T19:18:46.940Z,21.40
2018-04-18T19:21:14.490Z,21.40
2018-04-18T19:23:42.097Z,21.30
2018-04-18T19:26:10.720Z,21.10
2018-04-18T19:28:38.434Z,21.10
2018-04-18T19:31:06.020Z,21.00
2018-04-18T19:33:33.849Z,20.90
2018-04-18T19:36:02.213Z,20.80
2018-04-18T19:38:31.516Z,20.70
2018-04-18T19:40:59.104Z,20.70
2018-04-18T19:43:27.468Z,20.50
2018-04-18T19:45:55.209Z,20.50
2018-04-18T19:48:22.772Z,20.40
2018-04-18T19:50:50.373Z,20.30
2018-04-18T19:53:18.073Z,20.20
2018-04-18T19:55:46.883Z,20.10
2018-04-18T19:58:14.473Z,20.10
2018-04-18T20:00:42.844Z,20.00
2018-04-18T20:03:10.569Z,20.00
2018-04-18T20:05:38.158Z,19.80
2018-04-18T20:08:05.959Z,19.90
2018-04-18T20:10:33.554Z,19.80
2018-04-18T20:13:01.125Z,19.80
2018-04-18T20:15:28.716Z,19.60
2018-04-18T20:17:57.048Z,19.50
2018-04-18T20:20:24.644Z,19.40
2018-04-18T20:22:52.491Z,19.40
2018-04-18T20:25:20.195Z,19.40
2018-04-18T20:27:48.737Z,19.20
2018-04-18T20:30:16.480Z,19.20
2018-04-18T20:32:44.072Z,19.10
2018-04-18T20:35:12.297Z,18.90
2018-04-18T20:37:40.069Z,18.90
2018-04-18T20:40:07.650Z,18.80
2018-04-18T20:42:35.405Z,18.80
2018-04-18T20:45:03.001Z,18.70
2018-04-18T20:47:30.736Z,18.60
2018-04-18T20:49:58.350Z,18.60
2018-04-18T20:52:26.701Z,18.40
2018-04-18T20:54:55.046Z,18.40
2018-04-18T20:57:22.625Z,18.40
2018-04-18T20:59:50.196Z,18.30
2018-04-18T21:02:17.758Z,18.30
2018-04-18T21:04:45.358Z,18.20
2018-04-18T21:07:12.945Z,18.20
2018-04-18T21:09:40.837Z,18.10
2018-04-18T21:12:08.438Z,18.10
2018-04-18T21:14:36.843Z,18.10
2018-04-18T21:17:04.507Z,18.00
2018-04-18T21:19:33.410Z,18.00
2018-04-18T21:22:00.965Z,18.00
2018-04-18T21:24:28.604Z,18.00
2018-04-18T21:26:56.189Z,17.90
2018-04-18T21:29:23.757Z,17.90
2018-04-18T21:31:51.474Z,17.80
2018-04-18T21:34:20.618Z,17.80
2018-04-18T21:36:48.271Z,17.90
2018-04-18T21:39:15.952Z,16.10
2018-04-18T21:41:43.554Z,17.90
2018-04-18T21:44:12.380Z,17.80
2018-04-18T21:46:40.030Z,17.80
2018-04-18T21:49:07.739Z,17.80
2018-04-18T21:51:35.320Z,17.70
2018-04-18T21:54:03.295Z,17.70
2018-04-18T21:56:31.119Z,17.70
2018-04-18T21:58:58.756Z,17.70
2018-04-18T22:07:25.067Z,17.60
2018-04-18T22:10:10.212Z,17.60
2018-04-18T22:12:50.557Z,17.60
2018-04-18T22:15:18.138Z,17.60
2018-04-18T22:17:45.927Z,17.50
2018-04-18T22:20:13.503Z,17.50
2018-04-18T22:22:41.877Z,17.50
2018-04-18T22:25:10.344Z,17.40
2018-04-18T22:27:37.967Z,17.40
2018-04-18T22:30:20.444Z,17.40
2018-04-18T22:32:48.146Z,17.40
2018-04-18T22:35:15.859Z,17.30
2018-04-18T22:37:44.260Z,17.20
2018-04-18T22:40:13.571Z,17.20
2018-04-18T22:42:41.257Z,17.20
2018-04-18T22:45:09.041Z,17.10
2018-04-18T22:47:36.808Z,17.10
2018-04-18T22:50:04.421Z,16.00
2018-04-18T22:52:32.376Z,17.00
2018-04-18T22:54:59.976Z,16.90
2018-04-18T22:57:27.558Z,16.90
2018-04-18T22:59:55.710Z,16.80
2018-04-18T23:02:23.328Z,16.80
2018-04-18T23:04:51.753Z,16.70
2018-04-18T23:07:19.421Z,16.60
2018-04-18T23:09:47.004Z,16.60
2018-04-18T23:12:14.590Z,16.60
2018-04-18T23:14:42.944Z,16.60
2018-04-18T23:17:10.750Z,16.50
2018-04-18T23:19:40.190Z,16.50
2018-04-18T23:22:08.626Z,16.40
2018-04-18T23:24:36.211Z,16.40
2018-04-18T23:27:04.004Z,16.40
2018-04-18T23:29:31.751Z,16.40
2018-04-18T23:31:59.747Z,16.30
2018-04-18T23:34:28.319Z,16.30
2018-04-18T23:36:56.471Z,16.20
2018-04-18T23:39:24.616Z,16.10
2018-04-18T23:41:52.280Z,16.20
2018-04-18T23:44:19.970Z,16.10
2018-04-18T23:46:47.778Z,16.00
2018-04-18T23:49:15.752Z,16.00
2018-04-18T23:51:43.459Z,16.00
2018-04-18T23:54:11.174Z,15.90
2018-04-18T23:56:38.785Z,15.90
2018-04-18T23:59:06.402Z,15.80
